createdAt,value
2018-07-15T00:02:21.769Z,4.00
2018-07-15T00:04:50.113Z,6.83
2018-07-15T00:07:18.497Z,3.10
2018-07-15T00:09:46.862Z,3.60
2018-07-15T00:12:15.234Z,4.80
2018-07-15T00:14:43.614Z,7.13
2018-07-15T00:17:11.928Z,4.80
2018-07-15T00:19:40.334Z,5.57
2018-07-15T00:22:08.689Z,5.87
2018-07-15T00:24:37.043Z,6.60
2018-07-15T00:27:05.622Z,3.90
2018-07-15T00:29:34.015Z,6.20
2018-07-15T00:32:02.539Z,3.73
2018-07-15T00:34:30.861Z,3.50
2018-07-15T00:36:59.176Z,11.60
2018-07-15T00:39:27.476Z,4.60
2018-07-15T00:41:55.895Z,4.37
2018-07-15T00:44:24.351Z,3.90
2018-07-15T00:46:52.764Z,5.10
2018-07-15T00:49:21.173Z,3.80
2018-07-15T00:51:49.579Z,6.23
2018-07-15T00:54:17.853Z,4.20
2018-07-15T00:56:46.293Z,4.63
2018-07-15T00:59:14.643Z,5.33
2018-07-15T01:01:43.039Z,4.90
2018-07-15T01:04:11.366Z,4.30
2018-07-15T01:06:39.787Z,7.30
2018-07-15T01:09:09.311Z,4.83
2018-07-15T01:11:37.677Z,4.33
2018-07-15T01:14:06.415Z,6.80
2018-07-15T01:16:35.877Z,11.30
2018-07-15T01:19:04.317Z,5.23
2018-07-15T01:21:32.686Z,10.47
2018-07-15T01:24:01.067Z,5.10
2018-07-15T01:26:29.715Z,7.70
2018-07-15T01:28:58.098Z,5.20
2018-07-15T01:31:27.372Z,7.03
2018-07-15T01:33:55.816Z,5.13
2018-07-15T01:36:24.175Z,5.80
2018-07-15T01:38:52.507Z,5.50
2018-07-15T01:41:20.828Z,6.23
2018-07-15T01:43:49.193Z,11.13
2018-07-15T01:46:17.564Z,5.23
2018-07-15T01:48:45.932Z,6.23
2018-07-15T01:51:14.320Z,5.13
2018-07-15T01:53:42.707Z,5.80
2018-07-15T01:56:11.153Z,8.50
2018-07-15T01:58:39.598Z,8.30
2018-07-15T02:01:08.105Z,6.40
2018-07-15T02:03:36.392Z,5.93
2018-07-15T02:06:04.734Z,14.13
2018-07-15T02:08:33.232Z,9.47
2018-07-15T02:11:01.633Z,6.10
2018-07-15T02:13:30.068Z,7.47
2018-07-15T02:15:58.408Z,8.20
2018-07-15T02:18:26.803Z,8.10
2018-07-15T02:20:55.241Z,5.83
2018-07-15T02:23:23.650Z,7.50
2018-07-15T02:25:52.005Z,5.87
2018-07-15T02:28:20.375Z,6.00
2018-07-15T02:30:48.723Z,8.13
2018-07-15T02:33:17.172Z,8.23
2018-07-15T02:35:45.833Z,8.60
2018-07-15T02:38:14.215Z,6.00
2018-07-15T02:40:42.652Z,10.37
2018-07-15T02:43:11.113Z,7.20
2018-07-15T02:45:39.485Z,7.87
2018-07-15T02:48:07.845Z,6.93
2018-07-15T02:50:36.212Z,12.53
2018-07-15T02:53:04.669Z,10.17
2018-07-15T02:55:33.028Z,8.23
2018-07-15T02:58:01.557Z,9.50
2018-07-15T03:00:29.901Z,7.40
2018-07-15T03:02:58.790Z,13.90
2018-07-15T03:05:27.172Z,7.47
2018-07-15T03:07:55.550Z,10.60
2018-07-15T03:10:24.131Z,10.00
2018-07-15T03:12:52.430Z,8.73
2018-07-15T03:15:20.751Z,10.37
2018-07-15T03:17:49.118Z,7.93
2018-07-15T03:20:17.448Z,9.27
2018-07-15T03:22:45.832Z,12.80
2018-07-15T03:25:14.201Z,9.83
2018-07-15T03:27:42.537Z,9.83
2018-07-15T03:30:10.934Z,9.80
2018-07-15T03:32:39.339Z,7.40
2018-07-15T03:35:07.743Z,10.13
2018-07-15T03:37:36.109Z,7.40
2018-07-15T03:40:04.520Z,13.30
2018-07-15T03:42:32.936Z,10.87
2018-07-15T03:45:01.282Z,9.23
2018-07-15T03:47:29.698Z,9.17
2018-07-15T03:49:58.059Z,11.20
2018-07-15T03:52:26.512Z,7.77
2018-07-15T03:54:54.869Z,8.60
2018-07-15T03:57:23.226Z,8.93
2018-07-15T03:59:51.594Z,8.63
2018-07-15T04:02:19.980Z,13.00
2018-07-15T04:04:48.444Z,8.47
2018-07-15T04:07:16.917Z,7.87
2018-07-15T04:09:45.481Z,8.07
2018-07-15T04:12:13.888Z,8.57
2018-07-15T04:14:42.279Z,8.60
2018-07-15T04:17:10.679Z,8.00
2018-07-15T04:19:39.134Z,8.47
2018-07-15T04:22:07.546Z,11.30
2018-07-15T04:24:35.999Z,9.80
2018-07-15T04:27:04.367Z,8.50
2018-07-15T04:29:32.873Z,10.93
2018-07-15T04:32:01.504Z,8.60
2018-07-15T04:34:29.927Z,9.13
2018-07-15T04:36:58.317Z,11.30
2018-07-15T04:39:26.685Z,11.33
2018-07-15T04:41:55.048Z,11.17
2018-07-15T04:44:23.427Z,12.47
2018-07-15T04:46:51.787Z,12.57
2018-07-15T04:49:20.179Z,15.37
2018-07-15T04:51:48.559Z,11.83
2018-07-15T04:54:16.940Z,10.37
2018-07-15T04:56:45.439Z,14.40
2018-07-15T04:59:13.849Z,12.70
2018-07-15T05:01:42.762Z,13.40
2018-07-15T05:04:12.736Z,8.90
2018-07-15T05:06:41.110Z,10.40
2018-07-15T05:09:09.509Z,12.90
2018-07-15T05:11:38.552Z,9.20
2018-07-15T05:14:07.793Z,9.30
2018-07-15T05:16:36.467Z,11.10
2018-07-15T05:19:04.812Z,11.03
2018-07-15T05:21:33.180Z,12.27
2018-07-15T05:24:01.695Z,13.50
2018-07-15T05:26:30.041Z,11.10
2018-07-15T05:28:58.749Z,13.50
2018-07-15T05:31:29.295Z,9.57
2018-07-15T05:34:05.561Z,8.53
2018-07-15T05:36:35.100Z,11.87
2018-07-15T05:39:05.014Z,10.40
2018-07-15T05:41:33.806Z,10.37
2018-07-15T05:44:02.561Z,10.90
2018-07-15T05:46:31.312Z,10.50
2018-07-15T05:49:00.382Z,9.90
2018-07-15T05:51:30.189Z,22.20
2018-07-15T05:53:59.085Z,10.40
2018-07-15T05:56:28.588Z,12.43
2018-07-15T05:58:58.196Z,21.27
2018-07-15T06:01:27.520Z,9.97
2018-07-15T06:04:23.450Z,11.60
2018-07-15T06:06:52.541Z,9.33
2018-07-15T06:09:27.679Z,8.80
2018-07-15T06:11:57.117Z,9.30
2018-07-15T06:14:26.560Z,8.90
2018-07-15T06:16:55.916Z,8.90
2018-07-15T06:19:24.810Z,7.83
2018-07-15T06:21:53.896Z,9.97
2018-07-15T06:24:22.943Z,10.80
2018-07-15T06:26:52.143Z,9.20
2018-07-15T06:29:21.239Z,9.40
2018-07-15T06:31:50.352Z,12.23
2018-07-15T06:34:22.575Z,8.10
2018-07-15T06:37:02.619Z,14.30
2018-07-15T06:39:31.595Z,11.73
2018-07-15T06:42:00.272Z,8.70
2018-07-15T06:44:33.498Z,8.40
2018-07-15T06:47:02.318Z,16.50
2018-07-15T06:49:32.744Z,8.03
2018-07-15T06:52:01.947Z,10.40
2018-07-15T06:54:30.391Z,9.40
2018-07-15T06:56:59.312Z,7.80
2018-07-15T06:59:29.325Z,6.83
2018-07-15T07:01:58.321Z,11.00
2018-07-15T07:04:27.308Z,10.93
2018-07-15T07:06:56.433Z,14.40
2018-07-15T07:09:25.712Z,8.40
2018-07-15T07:11:54.803Z,7.10
2018-07-15T07:14:24.228Z,9.20
2018-07-15T07:19:52.798Z,6.10
2018-07-15T07:22:21.844Z,9.23
2018-07-15T07:24:51.418Z,9.30
2018-07-15T07:27:20.397Z,6.70
2018-07-15T07:29:49.459Z,10.30
2018-07-15T07:32:18.947Z,7.50
2018-07-15T07:40:35.328Z,8.63
2018-07-15T07:43:07.799Z,7.90
2018-07-15T07:45:37.232Z,7.10
2018-07-15T07:48:06.538Z,8.60
2018-07-15T07:50:36.211Z,6.80
2018-07-15T07:53:10.652Z,8.50
2018-07-15T07:55:39.727Z,16.40
2018-07-15T07:58:16.193Z,6.60
2018-07-15T08:00:52.645Z,6.50
2018-07-15T08:03:25.380Z,10.93
2018-07-15T08:05:55.623Z,12.20
2018-07-15T08:08:32.951Z,5.63
2018-07-15T08:11:45.757Z,7.13
2018-07-15T08:14:20.858Z,7.00
2018-07-15T08:16:49.432Z,5.80
2018-07-15T08:19:17.751Z,4.53
2018-07-15T08:21:46.220Z,6.40
2018-07-15T08:24:14.679Z,6.63
2018-07-15T08:26:42.878Z,8.90
2018-07-15T08:29:11.594Z,6.87
2018-07-15T08:31:40.221Z,3.60
2018-07-15T08:34:08.688Z,13.30
2018-07-15T08:36:37.036Z,4.10
2018-07-15T08:39:07.275Z,4.00
2018-07-15T08:41:35.947Z,4.27
2018-07-15T08:44:05.345Z,4.63
2018-07-15T08:46:34.036Z,5.57
2018-07-15T08:49:02.516Z,8.90
2018-07-15T08:51:31.643Z,4.07
2018-07-15T08:54:00.242Z,2.60
2018-07-15T08:56:28.880Z,3.80
2018-07-15T08:58:57.524Z,3.67
2018-07-15T09:01:26.099Z,2.93
2018-07-15T09:03:54.632Z,2.80
2018-07-15T09:06:23.184Z,3.87
2018-07-15T09:08:54.775Z,4.63
2018-07-15T09:11:29.331Z,2.60
2018-07-15T09:13:57.970Z,2.33
2018-07-15T09:16:26.416Z,4.60
2018-07-15T09:21:48.809Z,3.93
2018-07-15T09:24:17.651Z,2.67
2018-07-15T09:26:46.475Z,5.70
2018-07-15T09:29:15.160Z,3.30
2018-07-15T09:31:44.687Z,3.20
2018-07-15T09:34:13.298Z,2.30
2018-07-15T09:36:41.974Z,3.40
2018-07-15T09:39:14.482Z,4.87
2018-07-15T09:41:44.357Z,5.07
2018-07-15T09:44:14.195Z,6.63
2018-07-15T09:46:43.104Z,1.90
2018-07-15T09:49:11.577Z,2.10
2018-07-15T09:51:40.579Z,2.00
2018-07-15T09:54:12.842Z,1.40
2018-07-15T09:56:41.434Z,1.80
2018-07-15T09:59:09.962Z,10.33
2018-07-15T10:04:22.412Z,1.97
2018-07-15T10:06:50.842Z,4.90
2018-07-15T10:09:19.319Z,2.20
2018-07-15T10:11:47.733Z,1.87
2018-07-15T10:14:16.336Z,1.57
2018-07-15T10:16:44.833Z,2.20
2018-07-15T10:19:13.493Z,1.77
2018-07-15T10:21:41.950Z,4.40
2018-07-15T10:24:10.277Z,1.73
2018-07-15T10:26:43.409Z,7.53
2018-07-15T10:29:12.510Z,1.40
2018-07-15T10:31:41.709Z,1.00
2018-07-15T10:34:10.638Z,1.80
2018-07-15T10:36:40.321Z,2.87
2018-07-15T10:41:49.845Z,2.80
2018-07-15T10:44:17.946Z,1.40
2018-07-15T10:46:46.654Z,7.93
2018-07-15T10:49:17.590Z,1.30
2018-07-15T10:51:47.378Z,1.00
2018-07-15T10:54:16.411Z,2.60
2018-07-15T10:56:45.140Z,1.10
2018-07-15T10:59:13.950Z,1.60
2018-07-15T11:01:42.840Z,3.40
2018-07-15T11:04:11.969Z,4.03
2018-07-15T11:06:40.856Z,1.20
2018-07-15T11:09:09.924Z,2.33
2018-07-15T11:11:38.917Z,1.50
2018-07-15T11:14:07.454Z,1.20
2018-07-15T11:16:36.317Z,1.77
2018-07-15T11:19:05.017Z,3.17
2018-07-15T11:21:33.692Z,2.07
2018-07-15T11:24:02.553Z,0.90
2018-07-15T11:26:31.030Z,4.50
2018-07-15T11:28:59.769Z,1.37
2018-07-15T11:31:28.389Z,1.80
2018-07-15T11:33:57.054Z,0.90
2018-07-15T11:36:25.730Z,2.80
2018-07-15T11:38:54.343Z,1.50
2018-07-15T11:41:22.816Z,1.00
2018-07-15T11:43:51.444Z,1.13
2018-07-15T11:46:21.097Z,1.20
2018-07-15T11:48:49.662Z,1.37
2018-07-15T11:51:18.469Z,2.80
2018-07-15T11:53:47.877Z,1.57
2018-07-15T11:56:28.367Z,1.33
2018-07-15T11:59:05.360Z,2.50
2018-07-15T12:01:33.895Z,0.90
2018-07-15T12:04:02.546Z,1.77
2018-07-15T12:06:34.648Z,1.30
2018-07-15T12:09:03.685Z,1.80
2018-07-15T12:11:32.230Z,2.03
2018-07-15T12:14:01.088Z,1.20
2018-07-15T12:16:29.607Z,1.47
2018-07-15T12:18:59.650Z,3.30
2018-07-15T12:21:28.324Z,2.60
2018-07-15T12:23:56.730Z,1.27
2018-07-15T12:26:25.716Z,4.00
2018-07-15T12:28:54.624Z,0.90
2018-07-15T12:32:31.171Z,1.33
2018-07-15T12:35:00.954Z,1.10
2018-07-15T12:37:29.770Z,0.80
2018-07-15T12:39:58.357Z,1.83
2018-07-15T12:42:27.088Z,3.80
2018-07-15T12:44:55.886Z,1.27
2018-07-15T12:47:24.512Z,5.30
2018-07-15T12:49:53.188Z,0.80
2018-07-15T12:52:22.012Z,0.80
2018-07-15T12:54:50.840Z,5.70
2018-07-15T12:57:21.177Z,1.67
2018-07-15T12:59:50.046Z,1.00
2018-07-15T13:02:18.655Z,1.07
2018-07-15T13:04:47.336Z,1.37
2018-07-15T13:07:16.960Z,0.70
2018-07-15T13:09:45.517Z,1.37
2018-07-15T13:12:19.756Z,1.43
2018-07-15T13:14:49.582Z,3.20
2018-07-15T13:17:18.812Z,1.00
2018-07-15T13:19:47.531Z,0.80
2018-07-15T13:22:16.172Z,3.33
2018-07-15T13:24:44.768Z,1.67
2018-07-15T13:27:14.202Z,1.00
2018-07-15T13:29:42.827Z,1.00
2018-07-15T13:32:11.460Z,0.90
2018-07-15T13:34:40.258Z,1.10
2018-07-15T13:37:09.902Z,1.37
2018-07-15T13:39:38.524Z,2.50
2018-07-15T13:42:08.485Z,0.70
2018-07-15T13:44:36.810Z,2.13
2018-07-15T13:47:05.300Z,1.00
2018-07-15T13:49:34.029Z,0.70
2018-07-15T13:52:02.702Z,0.83
2018-07-15T13:54:31.681Z,1.93
2018-07-15T13:57:00.213Z,1.20
2018-07-15T13:59:29.016Z,2.60
2018-07-15T14:01:57.580Z,0.73
2018-07-15T14:04:30.127Z,0.80
2018-07-15T14:07:00.246Z,3.63
2018-07-15T14:09:28.905Z,6.13
2018-07-15T14:11:57.413Z,0.83
2018-07-15T14:14:26.815Z,1.10
2018-07-15T14:16:55.490Z,8.90
2018-07-15T14:19:24.075Z,1.20
2018-07-15T14:21:52.730Z,0.83
2018-07-15T14:24:21.218Z,1.63
2018-07-15T14:26:49.685Z,0.60
2018-07-15T14:29:18.350Z,0.80
2018-07-15T14:31:47.302Z,0.93
2018-07-15T14:34:15.783Z,1.53
2018-07-15T14:36:44.703Z,10.20
2018-07-15T14:39:13.423Z,1.07
2018-07-15T14:41:42.105Z,0.83
2018-07-15T14:44:11.438Z,0.70
2018-07-15T14:46:40.015Z,2.30
2018-07-15T14:49:08.399Z,0.83
2018-07-15T14:51:37.220Z,3.67
2018-07-15T14:54:06.102Z,2.90
2018-07-15T14:56:34.885Z,6.67
2018-07-15T14:59:08.612Z,1.80
2018-07-15T15:01:37.319Z,0.80
2018-07-15T15:04:05.754Z,1.30
2018-07-15T15:06:34.284Z,1.03
2018-07-15T15:09:02.714Z,1.57
2018-07-15T15:11:31.336Z,1.63
2018-07-15T15:13:59.834Z,1.70
2018-07-15T15:16:28.649Z,2.47
2018-07-15T15:18:57.650Z,1.63
2018-07-15T15:21:26.329Z,0.90
2018-07-15T15:23:54.992Z,7.97
2018-07-15T15:26:23.853Z,1.67
2018-07-15T15:28:57.235Z,1.20
2018-07-15T15:31:26.187Z,1.13
2018-07-15T15:33:54.588Z,2.00
2018-07-15T15:36:23.580Z,8.23
2018-07-15T15:38:53.437Z,2.33
2018-07-15T15:41:28.017Z,1.43
2018-07-15T15:43:56.264Z,0.83
2018-07-15T15:46:25.440Z,0.90
2018-07-15T15:48:54.413Z,3.97
2018-07-15T15:51:33.254Z,1.13
2018-07-15T15:54:03.055Z,1.90
2018-07-15T15:56:31.882Z,3.57
2018-07-15T15:59:00.541Z,2.47
2018-07-15T16:01:29.371Z,1.60
2018-07-15T16:03:58.716Z,3.03
2018-07-15T16:06:27.237Z,0.90
2018-07-15T16:08:55.598Z,2.10
2018-07-15T16:11:24.458Z,2.53
2018-07-15T16:13:53.331Z,3.63
2018-07-15T16:16:21.948Z,1.00
2018-07-15T16:18:50.484Z,9.30
2018-07-15T16:21:19.078Z,1.00
2018-07-15T16:26:40.931Z,0.80
2018-07-15T16:29:09.347Z,1.10
2018-07-15T16:31:38.557Z,1.20
2018-07-15T16:34:07.202Z,3.37
2018-07-15T16:36:36.069Z,1.10
2018-07-15T16:39:05.536Z,1.00
2018-07-15T16:41:33.911Z,1.40
2018-07-15T16:44:02.495Z,4.20
2018-07-15T16:46:31.361Z,11.00
2018-07-15T16:48:59.725Z,2.03
2018-07-15T16:51:28.618Z,2.03
2018-07-15T16:54:00.922Z,1.37
2018-07-15T16:56:34.216Z,1.53
2018-07-15T16:59:04.464Z,1.57
2018-07-15T17:01:33.066Z,7.20
2018-07-15T17:04:01.386Z,1.47
2018-07-15T17:06:29.699Z,1.57
2018-07-15T17:08:58.230Z,1.57
2018-07-15T17:11:26.567Z,1.20
2018-07-15T17:13:54.907Z,3.77
2018-07-15T17:16:23.280Z,1.40
2018-07-15T17:18:51.564Z,1.43
2018-07-15T17:21:19.886Z,3.43
2018-07-15T17:23:48.253Z,2.27
2018-07-15T17:26:16.720Z,2.77
2018-07-15T17:28:45.216Z,4.77
2018-07-15T17:31:13.602Z,3.60
2018-07-15T17:33:42.193Z,1.17
2018-07-15T17:36:10.699Z,9.60
2018-07-15T17:38:39.007Z,1.63
2018-07-15T17:41:07.526Z,7.00
2018-07-15T17:43:36.737Z,1.97
2018-07-15T17:46:05.318Z,1.60
2018-07-15T17:48:33.786Z,1.90
2018-07-15T17:51:02.092Z,1.60
2018-07-15T17:53:30.526Z,1.50
2018-07-15T17:55:58.999Z,4.33
2018-07-15T17:58:27.637Z,1.40
2018-07-15T18:00:56.192Z,3.53
2018-07-15T18:03:24.527Z,2.33
2018-07-15T18:05:53.005Z,2.13
2018-07-15T18:08:21.506Z,8.87
2018-07-15T18:10:49.913Z,5.43
2018-07-15T18:13:18.431Z,2.50
2018-07-15T18:15:46.540Z,1.20
2018-07-15T18:18:15.041Z,1.20
2018-07-15T18:20:43.466Z,1.10
2018-07-15T18:23:11.886Z,1.60
2018-07-15T18:25:44.292Z,1.83
2018-07-15T18:28:15.850Z,1.00
2018-07-15T18:30:44.268Z,1.90
2018-07-15T18:33:12.699Z,3.77
2018-07-15T18:35:41.180Z,1.40
2018-07-15T18:38:09.867Z,4.60
2018-07-15T18:40:38.190Z,2.17
2018-07-15T18:43:06.779Z,1.40
2018-07-15T18:45:35.127Z,2.60
2018-07-15T18:48:03.504Z,4.77
2018-07-15T18:50:31.872Z,1.90
2018-07-15T18:53:00.306Z,9.03
2018-07-15T18:55:29.124Z,2.00
2018-07-15T18:57:57.557Z,4.40
2018-07-15T19:00:26.102Z,1.50
2018-07-15T19:02:54.741Z,1.27
2018-07-15T19:05:23.053Z,1.73
2018-07-15T19:07:51.387Z,1.93
2018-07-15T19:10:19.816Z,1.30
2018-07-15T19:12:48.127Z,2.60
2018-07-15T19:15:16.570Z,1.50
2018-07-15T19:17:44.952Z,1.60
2018-07-15T19:20:13.256Z,1.83
2018-07-15T19:22:41.286Z,2.10
2018-07-15T19:25:09.762Z,1.97
2018-07-15T19:27:38.078Z,7.10
2018-07-15T19:30:06.318Z,7.13
2018-07-15T19:32:34.634Z,17.63
2018-07-15T19:35:03.075Z,3.00
2018-07-15T19:37:31.528Z,1.80
2018-07-15T19:39:59.862Z,3.37
2018-07-15T19:42:28.335Z,3.00
2018-07-15T19:44:56.647Z,4.90
2018-07-15T19:47:24.947Z,4.50
2018-07-15T19:49:53.307Z,3.63
2018-07-15T19:52:21.659Z,2.37
2018-07-15T19:54:49.969Z,2.43
2018-07-15T19:57:18.293Z,2.10
2018-07-15T19:59:49.707Z,5.30
2018-07-15T20:02:18.012Z,7.23
2018-07-15T20:04:46.299Z,2.47
2018-07-15T20:07:14.625Z,2.23
2018-07-15T20:09:43.541Z,2.47
2018-07-15T20:12:11.863Z,2.40
2018-07-15T20:14:40.369Z,5.90
2018-07-15T20:17:08.393Z,2.60
2018-07-15T20:19:36.720Z,3.23
2018-07-15T20:22:05.221Z,2.00
2018-07-15T20:24:33.544Z,3.13
2018-07-15T20:27:01.847Z,2.90
2018-07-15T20:29:30.184Z,6.60
2018-07-15T20:31:58.636Z,6.27
2018-07-15T20:34:26.993Z,4.47
2018-07-15T20:36:55.306Z,7.40
2018-07-15T20:39:23.674Z,5.63
2018-07-15T20:41:52.006Z,2.90
2018-07-15T20:44:20.349Z,5.83
2018-07-15T20:46:48.890Z,3.17
2018-07-15T20:49:17.202Z,2.60
2018-07-15T20:51:45.576Z,3.30
2018-07-15T20:54:13.913Z,3.33
2018-07-15T20:56:42.267Z,1.67
2018-07-15T20:59:10.563Z,4.37
2018-07-15T21:01:38.638Z,5.23
2018-07-15T21:04:06.718Z,2.97
2018-07-15T21:06:35.638Z,2.07
2018-07-15T21:09:05.185Z,2.50
2018-07-15T21:11:33.525Z,1.87
2018-07-15T21:14:02.127Z,4.50
2018-07-15T21:16:30.403Z,5.80
2018-07-15T21:18:59.028Z,4.30
2018-07-15T21:21:27.403Z,4.23
2018-07-15T21:23:55.747Z,3.17
2018-07-15T21:26:24.065Z,10.87
2018-07-15T21:28:52.400Z,3.40
2018-07-15T21:31:20.786Z,1.80
2018-07-15T21:33:48.762Z,1.83
2018-07-15T21:36:17.060Z,3.40
2018-07-15T21:38:45.372Z,2.00
2018-07-15T21:41:13.676Z,4.33
2018-07-15T21:43:41.997Z,7.83
2018-07-15T21:46:10.374Z,1.83
2018-07-15T21:48:38.707Z,2.37
2018-07-15T21:51:07.082Z,4.47
2018-07-15T21:53:35.418Z,2.60
2018-07-15T21:56:03.789Z,2.57
2018-07-15T21:58:32.254Z,2.40
2018-07-15T22:01:00.721Z,2.30
2018-07-15T22:03:29.029Z,2.43
2018-07-15T22:05:57.543Z,2.00
2018-07-15T22:08:37.205Z,3.13
2018-07-15T22:11:05.559Z,3.10
2018-07-15T22:13:33.856Z,2.43
2018-07-15T22:16:02.260Z,2.40
2018-07-15T22:18:37.215Z,3.50
2018-07-15T22:21:05.668Z,1.90
2018-07-15T22:23:34.225Z,5.57
2018-07-15T22:26:02.542Z,15.93
2018-07-15T22:28:30.859Z,3.70
2018-07-15T22:30:59.285Z,2.47
2018-07-15T22:34:00.009Z,2.10
2018-07-15T22:36:32.934Z,2.77
2018-07-15T22:39:01.344Z,13.27
2018-07-15T22:41:29.429Z,2.73
2018-07-15T22:43:57.770Z,7.13
2018-07-15T22:46:26.127Z,4.70
2018-07-15T22:48:54.491Z,2.40
2018-07-15T22:51:22.595Z,6.57
2018-07-15T22:53:51.020Z,2.80
2018-07-15T22:56:19.379Z,4.83
2018-07-15T22:58:47.483Z,2.20
2018-07-15T23:01:15.834Z,2.40
2018-07-15T23:03:43.912Z,2.10
2018-07-15T23:06:17.888Z,3.23
2018-07-15T23:08:46.231Z,2.90
2018-07-15T23:11:14.652Z,9.53
2018-07-15T23:13:43.063Z,8.73
2018-07-15T23:16:11.435Z,3.43
2018-07-15T23:18:39.802Z,2.37
2018-07-15T23:21:08.134Z,4.80
2018-07-15T23:23:36.508Z,4.00
2018-07-15T23:26:04.851Z,4.70
2018-07-15T23:28:32.910Z,2.40
2018-07-15T23:31:01.284Z,8.83
2018-07-15T23:33:29.650Z,2.50
2018-07-15T23:35:57.738Z,3.37
2018-07-15T23:38:26.184Z,2.73
2018-07-15T23:40:54.535Z,2.83
2018-07-15T23:43:22.855Z,3.03
2018-07-15T23:45:51.214Z,3.07
2018-07-15T23:48:19.598Z,3.00
2018-07-15T23:50:48.072Z,2.70
2018-07-15T23:53:16.432Z,9.07
2018-07-15T23:55:44.778Z,5.07
2018-07-15T23:58:13.139Z,3.80
